Time;durP1;ratioP1;P1;durP2;ratioP2;P2;SDS_P1;SDS_P2;PMS_P1;PMS_P2;Temp;Humidity;BMP_temperature;BMP_pressure;BME280_temperature;BME280_humidity;BME280_pressure;Samples;Min_cycle;Max_cycle;Signal;HPM_P1;HPM_P2
2022/04/22 00:00:26;;;;;;;62.53;37.40;;;;;;;;;;755169;184;915989;-64
2022/04/22 00:02:54;;;;;;;58.05;37.67;;;;;;;;;;758247;184;918376;-63
2022/04/22 00:05:19;;;;;;;61.17;38.17;;;;;;;;;;744683;187;919156;-64
2022/04/22 00:07:45;;;;;;;58.43;37.83;;;;;;;;;;743953;187;918826;-63
2022/04/22 00:10:11;;;;;;;59.47;35.90;;;;;;;;;;762528;183;917900;-64
2022/04/22 00:12:37;;;;;;;55.13;36.53;;;;;;;;;;762358;183;919397;-63
2022/04/22 00:15:03;;;;;;;66.87;36.83;;;;;;;;;;754997;182;918919;-63
2022/04/22 00:17:28;;;;;;;51.53;35.83;;;;;;;;;;751303;182;919700;-64
2022/04/22 00:19:54;;;;;;;59.80;35.47;;;;;;;;;;743925;187;897406;-64
2022/04/22 00:22:20;;;;;;;62.17;36.03;;;;;;;;;;738515;186;918859;-63
2022/04/22 00:24:46;;;;;;;61.87;37.00;;;;;;;;;;744649;186;918248;-64
2022/04/22 00:27:12;;;;;;;55.13;36.23;;;;;;;;;;744338;185;919480;-62
2022/04/22 00:29:38;;;;;;;63.00;36.53;;;;;;;;;;761989;183;919796;-64
2022/04/22 00:32:04;;;;;;;56.33;32.90;;;;;;;;;;759418;183;919359;-64
2022/04/22 00:34:30;;;;;;;58.27;35.30;;;;;;;;;;758393;184;919268;-63
2022/04/22 00:36:56;;;;;;;57.42;36.00;;;;;;;;;;764133;184;919246;-65
2022/04/22 00:39:21;;;;;;;69.10;41.90;;;;;;;;;;752677;185;919433;-64
2022/04/22 00:41:48;;;;;;;61.23;37.30;;;;;;;;;;758032;185;917868;-63
2022/04/22 00:44:13;;;;;;;65.40;39.07;;;;;;;;;;765214;183;919794;-63
2022/04/22 00:46:39;;;;;;;68.70;38.70;;;;;;;;;;752806;183;918910;-65
2022/04/22 00:49:05;;;;;;;57.23;37.00;;;;;;;;;;747558;185;919351;-63
2022/04/22 00:51:31;;;;;;;64.00;38.70;;;;;;;;;;755700;185;918371;-63
2022/04/22 00:53:56;;;;;;;61.50;38.10;;;;;;;;;;756959;184;919564;-64
2022/04/22 00:56:22;;;;;;;70.13;41.93;;;;;;;;;;761446;180;920299;-64
2022/04/22 00:58:49;;;;;;;65.87;41.43;;;;;;;;;;755953;184;919453;-63
2022/04/22 01:01:14;;;;;;;69.00;41.40;;;;;;;;;;764284;183;918602;-63
2022/04/22 01:09:46;;;;;;;71.37;43.40;;;;;;;;;;760127;182;918674;-65
2022/04/22 01:09:47;;;;;;;67.47;41.83;;;;;;;;;;765262;182;918053;-64
2022/04/22 01:11:07;;;;;;;65.10;40.10;;;;;;;;;;761927;184;919561;-66
2022/04/22 01:13:32;;;;;;;68.87;41.47;;;;;;;;;;759053;184;918597;-63
2022/04/22 01:15:58;;;;;;;83.30;42.42;;;;;;;;;;754609;183;1020678;-64
2022/04/22 01:18:24;;;;;;;77.57;41.37;;;;;;;;;;757742;183;919090;-64
2022/04/22 01:20:50;;;;;;;68.63;41.40;;;;;;;;;;758994;184;920235;-64
2022/04/22 01:23:16;;;;;;;71.27;41.87;;;;;;;;;;765697;183;919157;-63
2022/04/22 01:25:42;;;;;;;81.43;42.20;;;;;;;;;;758476;184;918906;-64
2022/04/22 01:28:09;;;;;;;80.33;40.70;;;;;;;;;;754997;183;919240;-64
2022/04/22 01:30:33;;;;;;;72.50;42.13;;;;;;;;;;747670;184;918920;-63
2022/04/22 01:32:59;;;;;;;71.17;41.37;;;;;;;;;;765258;184;920475;-63
2022/04/22 01:35:25;;;;;;;71.90;42.13;;;;;;;;;;754372;184;920417;-63
2022/04/22 01:37:51;;;;;;;68.33;40.53;;;;;;;;;;757981;183;918925;-64
2022/04/22 01:40:17;;;;;;;70.28;39.85;;;;;;;;;;760747;183;920199;-64
2022/04/22 01:42:43;;;;;;;65.67;39.37;;;;;;;;;;761757;184;1021344;-64
2022/04/22 01:45:09;;;;;;;70.73;38.30;;;;;;;;;;749442;185;915337;-63
2022/04/22 01:47:34;;;;;;;83.95;44.85;;;;;;;;;;755984;183;914914;-65
2022/04/22 01:50:00;;;;;;;67.40;42.97;;;;;;;;;;757200;184;916341;-65
2022/04/22 01:52:26;;;;;;;84.67;44.40;;;;;;;;;;752642;184;919069;-64
2022/04/22 01:54:54;;;;;;;85.47;48.63;;;;;;;;;;759015;184;918735;-64
2022/04/22 01:57:18;;;;;;;72.67;42.13;;;;;;;;;;757374;184;918614;-64
2022/04/22 01:59:44;;;;;;;84.40;45.37;;;;;;;;;;757735;184;919251;-64
2022/04/22 02:02:09;;;;;;;80.70;50.23;;;;;;;;;;754633;184;919536;-64
2022/04/22 02:04:36;;;;;;;81.30;44.13;;;;;;;;;;751861;184;919625;-62
2022/04/22 02:07:02;;;;;;;75.60;45.50;;;;;;;;;;764746;183;918602;-64
2022/04/22 02:09:28;;;;;;;74.60;45.57;;;;;;;;;;761281;184;923557;-64
2022/04/22 02:11:54;;;;;;;73.70;45.70;;;;;;;;;;757305;184;919341;-62
2022/04/22 02:14:20;;;;;;;75.13;43.93;;;;;;;;;;764571;182;919139;-63
2022/04/22 02:16:46;;;;;;;75.73;46.67;;;;;;;;;;749444;184;918856;-64
2022/04/22 02:19:11;;;;;;;77.22;41.10;;;;;;;;;;752376;184;919961;-64
2022/04/22 02:21:37;;;;;;;67.77;42.20;;;;;;;;;;761860;184;920061;-64
2022/04/22 02:24:03;;;;;;;70.93;41.50;;;;;;;;;;755031;183;918525;-65
2022/04/22 02:28:31;;;;;;;62.65;40.72;;;;;;;;;;749286;187;919541;-65
2022/04/22 02:28:55;;;;;;;76.47;43.67;;;;;;;;;;739915;187;918308;-65
2022/04/22 02:31:21;;;;;;;79.72;43.95;;;;;;;;;;761823;183;918670;-65
2022/04/22 02:33:47;;;;;;;68.23;41.13;;;;;;;;;;758062;184;919712;-65
2022/04/22 02:36:16;;;;;;;73.28;42.53;;;;;;;;;;755024;184;1019640;-65
2022/04/22 02:38:39;;;;;;;78.37;44.43;;;;;;;;;;761592;184;905910;-64
2022/04/22 02:46:08;;;;;;;68.00;42.70;;;;;;;;;;755749;184;918729;-63
2022/04/22 02:48:33;;;;;;;82.33;45.97;;;;;;;;;;761155;184;919567;-64
2022/04/22 02:50:59;;;;;;;83.27;45.90;;;;;;;;;;750388;184;919524;-64
2022/04/22 02:53:25;;;;;;;75.70;46.30;;;;;;;;;;754314;184;918684;-64
2022/04/22 02:55:51;;;;;;;66.20;40.60;;;;;;;;;;759982;184;918855;-64
2022/04/22 02:58:17;;;;;;;68.35;42.33;;;;;;;;;;753949;184;919090;-63
2022/04/22 03:00:43;;;;;;;79.30;43.47;;;;;;;;;;753336;184;918707;-65
2022/04/22 03:03:09;;;;;;;73.12;39.10;;;;;;;;;;762393;184;919167;-62
2022/04/22 03:05:35;;;;;;;72.13;40.50;;;;;;;;;;755208;186;919241;-65
2022/04/22 03:08:01;;;;;;;64.13;39.10;;;;;;;;;;757577;183;918964;-64
2022/04/22 03:10:27;;;;;;;75.27;43.07;;;;;;;;;;761682;184;919445;-65
2022/04/22 03:12:53;;;;;;;65.47;39.50;;;;;;;;;;754584;184;919670;-64
2022/04/22 03:15:18;;;;;;;70.93;38.40;;;;;;;;;;754635;184;919187;-64
2022/04/22 03:17:44;;;;;;;78.80;41.07;;;;;;;;;;755502;184;916301;-65
2022/04/22 03:20:11;;;;;;;73.80;41.67;;;;;;;;;;759430;184;925983;-64
2022/04/22 03:22:36;;;;;;;75.03;44.72;;;;;;;;;;755398;184;919558;-64
2022/04/22 03:25:02;;;;;;;66.23;39.50;;;;;;;;;;756408;184;913902;-65
2022/04/22 03:27:28;;;;;;;71.37;42.13;;;;;;;;;;765285;182;919258;-65
2022/04/22 03:29:54;;;;;;;75.40;41.00;;;;;;;;;;760671;183;918726;-63
2022/04/22 03:32:20;;;;;;;63.47;39.37;;;;;;;;;;758058;182;916866;-65
2022/04/22 03:34:46;;;;;;;69.60;41.37;;;;;;;;;;756190;183;911483;-65
2022/04/22 03:37:11;;;;;;;64.40;40.83;;;;;;;;;;766741;183;913549;-64
2022/04/22 03:39:37;;;;;;;73.60;40.87;;;;;;;;;;761356;183;917063;-64
2022/04/22 03:42:04;;;;;;;65.90;40.13;;;;;;;;;;755559;183;919244;-63
2022/04/22 03:44:30;;;;;;;70.70;41.47;;;;;;;;;;758935;184;919610;-63
2022/04/22 03:46:55;;;;;;;60.03;38.20;;;;;;;;;;754488;184;919494;-63
2022/04/22 03:49:21;;;;;;;70.27;40.93;;;;;;;;;;754599;184;1020521;-65
2022/04/22 03:51:48;;;;;;;64.00;40.37;;;;;;;;;;764709;183;919890;-65
2022/04/22 03:54:18;;;;;;;65.80;40.37;;;;;;;;;;755844;184;918746;-64
2022/04/22 03:59:12;;;;;;;67.87;37.60;;;;;;;;;;744014;186;917582;-64
2022/04/22 04:01:37;;;;;;;60.00;37.20;;;;;;;;;;764237;184;635435;-64
2022/04/22 04:04:03;;;;;;;58.90;37.20;;;;;;;;;;760900;184;630082;-64
2022/04/22 04:06:29;;;;;;;59.90;36.10;;;;;;;;;;764568;184;622599;-65
2022/04/22 04:16:32;;;;;;;63.87;37.60;;;;;;;;;;759309;183;919618;-64
2022/04/22 04:23:14;;;;;;;59.83;36.30;;;;;;;;;;759004;183;918168;-67
2022/04/22 04:23:56;;;;;;;58.40;37.80;;;;;;;;;;758387;185;624597;-65
2022/04/22 04:26:24;;;;;;;73.37;39.33;;;;;;;;;;761939;185;918876;-64
2022/04/22 04:28:50;;;;;;;67.13;40.37;;;;;;;;;;755694;185;918273;-65
2022/04/22 04:31:14;;;;;;;79.97;44.03;;;;;;;;;;757665;184;919693;-63
2022/04/22 04:33:40;;;;;;;72.93;43.10;;;;;;;;;;756425;184;919939;-65
2022/04/22 04:36:06;;;;;;;80.40;42.40;;;;;;;;;;757579;180;920150;-64
2022/04/22 04:38:32;;;;;;;71.10;41.60;;;;;;;;;;767122;183;905878;-65
2022/04/22 04:40:58;;;;;;;71.43;40.73;;;;;;;;;;762947;184;918715;-63
2022/04/22 04:43:23;;;;;;;81.83;46.30;;;;;;;;;;762013;184;918593;-63
2022/04/22 04:45:50;;;;;;;74.20;43.27;;;;;;;;;;766319;184;919162;-63
2022/04/22 04:48:15;;;;;;;66.37;41.53;;;;;;;;;;758765;184;919200;-65
2022/04/22 04:50:43;;;;;;;80.67;43.97;;;;;;;;;;757869;184;1025232;-64
2022/04/22 04:53:07;;;;;;;68.80;41.20;;;;;;;;;;763914;184;919287;-65
2022/04/22 04:55:33;;;;;;;88.13;42.80;;;;;;;;;;749484;184;919851;-64
2022/04/22 04:57:59;;;;;;;79.20;43.40;;;;;;;;;;756457;184;920241;-64
2022/04/22 05:00:24;;;;;;;82.17;44.83;;;;;;;;;;761258;183;919875;-64
2022/04/22 05:02:50;;;;;;;83.27;44.60;;;;;;;;;;767600;183;918756;-65
2022/04/22 05:05:16;;;;;;;68.90;39.57;;;;;;;;;;759603;184;919445;-63
2022/04/22 05:07:46;;;;;;;68.07;41.53;;;;;;;;;;759414;184;919403;-65
2022/04/22 05:10:11;;;;;;;73.77;40.00;;;;;;;;;;764126;184;918838;-62
2022/04/22 05:12:37;;;;;;;81.32;43.00;;;;;;;;;;754514;184;919262;-64
2022/04/22 05:15:03;;;;;;;69.90;42.47;;;;;;;;;;747325;185;919542;-64
2022/04/22 05:17:29;;;;;;;78.53;43.53;;;;;;;;;;751017;185;919001;-63
2022/04/22 05:19:56;;;;;;;83.57;46.30;;;;;;;;;;763476;183;935364;-63
2022/04/22 05:22:21;;;;;;;72.60;42.80;;;;;;;;;;756571;184;918826;-63
2022/04/22 05:24:47;;;;;;;79.03;40.70;;;;;;;;;;755035;184;927168;-64
2022/04/22 05:27:13;;;;;;;74.87;42.07;;;;;;;;;;763067;184;918588;-64
2022/04/22 05:34:42;;;;;;;78.63;44.53;;;;;;;;;;756560;183;919220;-63
2022/04/22 05:37:08;;;;;;;72.27;41.67;;;;;;;;;;755433;184;920162;-64
2022/04/22 05:39:34;;;;;;;72.23;41.47;;;;;;;;;;754795;184;920026;-63
2022/04/22 05:42:01;;;;;;;73.63;43.50;;;;;;;;;;754852;183;918324;-64
2022/04/22 05:44:26;;;;;;;75.83;44.50;;;;;;;;;;759229;184;918856;-64
2022/04/22 05:46:52;;;;;;;73.27;42.27;;;;;;;;;;758241;183;919215;-65
2022/04/22 05:49:18;;;;;;;74.77;42.17;;;;;;;;;;758913;182;919535;-63
2022/04/22 05:51:44;;;;;;;72.53;43.35;;;;;;;;;;759150;183;919661;-63
2022/04/22 05:54:10;;;;;;;73.60;43.53;;;;;;;;;;757771;182;919069;-64
2022/04/22 05:56:36;;;;;;;78.23;46.30;;;;;;;;;;752429;184;919547;-64
2022/04/22 05:59:02;;;;;;;85.38;47.35;;;;;;;;;;750927;184;1022888;-64
2022/04/22 06:01:28;;;;;;;85.33;45.87;;;;;;;;;;752411;184;919339;-64
2022/04/22 06:03:53;;;;;;;82.57;44.80;;;;;;;;;;749420;185;928076;-64
2022/04/22 06:06:19;;;;;;;85.90;48.07;;;;;;;;;;748532;184;920209;-63
2022/04/22 06:11:17;;;;;;;91.43;43.23;;;;;;;;;;749997;184;919176;-64
2022/04/22 06:13:46;;;;;;;67.53;42.80;;;;;;;;;;747515;184;922009;-64
2022/04/22 06:16:08;;;;;;;84.90;45.00;;;;;;;;;;752257;183;1020230;-63
2022/04/22 06:18:34;;;;;;;85.63;45.67;;;;;;;;;;766003;183;918279;-64
2022/04/22 06:21:00;;;;;;;76.47;45.73;;;;;;;;;;757701;183;919426;-64
2022/04/22 06:23:26;;;;;;;80.60;46.33;;;;;;;;;;760286;183;918806;-64
2022/04/22 06:25:53;;;;;;;87.17;46.87;;;;;;;;;;759251;184;918552;-64
2022/04/22 06:28:18;;;;;;;85.47;45.08;;;;;;;;;;751926;183;923592;-64
2022/04/22 06:30:44;;;;;;;79.23;45.00;;;;;;;;;;759527;183;919331;-63
2022/04/22 06:33:10;;;;;;;83.23;49.73;;;;;;;;;;764279;183;918960;-64
2022/04/22 06:35:36;;;;;;;89.03;50.70;;;;;;;;;;753608;184;1024165;-64
2022/04/22 06:38:02;;;;;;;85.43;49.13;;;;;;;;;;754239;184;919556;-65
2022/04/22 06:48:04;;;;;;;72.50;41.80;;;;;;;;;;754851;184;915560;-64
2022/04/22 06:50:30;;;;;;;97.23;51.70;;;;;;;;;;754616;184;945921;-65
2022/04/22 06:52:56;;;;;;;90.87;49.47;;;;;;;;;;758637;184;924467;-65
2022/04/22 06:55:22;;;;;;;93.13;51.50;;;;;;;;;;754483;184;919363;-65
2022/04/22 06:57:49;;;;;;;90.70;49.93;;;;;;;;;;760073;184;918989;-64
2022/04/22 07:00:15;;;;;;;100.22;53.38;;;;;;;;;;757923;183;920805;-64
2022/04/22 07:02:41;;;;;;;102.80;53.67;;;;;;;;;;760685;184;919502;-64
2022/04/22 07:05:09;;;;;;;112.30;60.70;;;;;;;;;;754794;184;918988;-64
2022/04/22 07:07:34;;;;;;;97.17;55.53;;;;;;;;;;747653;185;919067;-65
2022/04/22 07:10:00;;;;;;;99.63;53.37;;;;;;;;;;757044;183;942702;-65
2022/04/22 07:12:26;;;;;;;109.35;59.97;;;;;;;;;;754093;184;917774;-65
2022/04/22 07:14:52;;;;;;;106.75;56.35;;;;;;;;;;759841;183;918660;-64
2022/04/22 07:17:18;;;;;;;104.87;55.87;;;;;;;;;;760217;184;918700;-65
2022/04/22 07:19:44;;;;;;;108.90;53.90;;;;;;;;;;756905;183;918518;-64
2022/04/22 07:22:10;;;;;;;108.00;57.27;;;;;;;;;;749092;184;919250;-64
2022/04/22 07:24:36;;;;;;;110.00;56.07;;;;;;;;;;750924;184;918506;-65
2022/04/22 07:27:02;;;;;;;106.30;55.50;;;;;;;;;;763458;183;919098;-66
2022/04/22 07:29:28;;;;;;;103.20;55.40;;;;;;;;;;757957;184;920679;-64
2022/04/22 07:31:54;;;;;;;97.37;52.23;;;;;;;;;;761604;184;886968;-65
2022/04/22 07:34:19;;;;;;;96.33;49.60;;;;;;;;;;764424;184;918861;-65
2022/04/22 07:36:45;;;;;;;130.87;64.13;;;;;;;;;;762492;184;625317;-66
2022/04/22 07:39:11;;;;;;;93.43;46.70;;;;;;;;;;755350;184;920004;-65
2022/04/22 07:41:38;;;;;;;95.23;56.23;;;;;;;;;;765238;183;915094;-65
2022/04/22 07:49:07;;;;;;;83.83;48.40;;;;;;;;;;752147;184;918900;-65
2022/04/22 07:51:33;;;;;;;88.57;46.73;;;;;;;;;;760089;184;919236;-64
2022/04/22 07:53:58;;;;;;;83.27;45.60;;;;;;;;;;756566;183;918887;-64
2022/04/22 07:56:24;;;;;;;78.53;47.93;;;;;;;;;;754034;183;929503;-65
2022/04/22 07:58:50;;;;;;;76.75;44.65;;;;;;;;;;757193;184;921554;-64
2022/04/22 08:01:16;;;;;;;85.03;48.30;;;;;;;;;;757697;184;910393;-65
2022/04/22 08:03:42;;;;;;;76.67;44.53;;;;;;;;;;749289;183;916979;-65
2022/04/22 08:06:10;;;;;;;61.15;39.13;;;;;;;;;;749508;184;917935;-64
2022/04/22 08:08:34;;;;;;;73.70;40.30;;;;;;;;;;755529;184;919151;-64
2022/04/22 08:11:00;;;;;;;66.00;39.53;;;;;;;;;;748467;184;1021162;-64
2022/04/22 08:13:26;;;;;;;65.73;39.67;;;;;;;;;;760453;182;918276;-63
2022/04/22 08:15:52;;;;;;;69.13;41.43;;;;;;;;;;765543;184;919038;-63
2022/04/22 08:18:18;;;;;;;62.93;38.67;;;;;;;;;;754948;183;932793;-65
2022/04/22 08:20:44;;;;;;;56.60;35.13;;;;;;;;;;760466;182;916486;-64
2022/04/22 08:23:11;;;;;;;45.58;25.83;;;;;;;;;;759826;183;926178;-63
2022/04/22 08:25:37;;;;;;;65.63;40.33;;;;;;;;;;763966;183;919656;-65
2022/04/22 08:28:03;;;;;;;56.47;37.13;;;;;;;;;;757400;184;918918;-63
2022/04/22 08:30:29;;;;;;;64.50;35.83;;;;;;;;;;755612;183;918783;-65
2022/04/22 08:32:55;;;;;;;52.43;33.20;;;;;;;;;;762371;183;920021;-63
2022/04/22 08:35:20;;;;;;;52.73;32.67;;;;;;;;;;758575;183;920176;-64
2022/04/22 08:37:46;;;;;;;64.93;36.97;;;;;;;;;;760513;183;1020435;-64
2022/04/22 08:40:12;;;;;;;60.80;33.77;;;;;;;;;;760229;184;918553;-64
2022/04/22 08:42:38;;;;;;;67.27;41.00;;;;;;;;;;755309;184;919466;-65
2022/04/22 08:45:04;;;;;;;64.18;41.80;;;;;;;;;;756517;183;919229;-65
2022/04/22 08:50:02;;;;;;;65.63;38.23;;;;;;;;;;763657;184;918297;-65
2022/04/22 08:52:29;;;;;;;58.70;41.03;;;;;;;;;;758000;183;918715;-65
2022/04/22 08:54:54;;;;;;;78.90;44.50;;;;;;;;;;756396;183;1020335;-65
2022/04/22 08:57:20;;;;;;;77.43;43.43;;;;;;;;;;760402;184;918695;-64
2022/04/22 08:59:46;;;;;;;79.90;44.23;;;;;;;;;;758651;183;918609;-65
2022/04/22 09:02:16;;;;;;;69.50;40.20;;;;;;;;;;755600;184;919378;-64
2022/04/22 09:04:42;;;;;;;66.80;39.75;;;;;;;;;;755597;183;919716;-66
2022/04/22 09:07:08;;;;;;;92.40;56.00;;;;;;;;;;757802;184;918103;-65
2022/04/22 09:09:33;;;;;;;77.13;47.07;;;;;;;;;;753273;183;918570;-65
2022/04/22 09:12:05;;;;;;;81.22;47.45;;;;;;;;;;759976;183;918757;-65
2022/04/22 09:14:31;;;;;;;72.00;45.07;;;;;;;;;;762010;184;919286;-65
2022/04/22 09:16:57;;;;;;;75.17;49.40;;;;;;;;;;755431;184;919253;-66
2022/04/22 09:19:23;;;;;;;75.13;45.10;;;;;;;;;;753791;183;920455;-65
2022/04/22 09:21:56;;;;;;;73.70;44.73;;;;;;;;;;756172;183;919328;-64
2022/04/22 09:24:21;;;;;;;76.53;48.67;;;;;;;;;;764525;182;917527;-66
2022/04/22 09:26:47;;;;;;;79.43;51.73;;;;;;;;;;766718;182;915961;-66
2022/04/22 09:29:13;;;;;;;97.07;51.13;;;;;;;;;;753789;184;918472;-67
2022/04/22 09:31:45;;;;;;;70.27;47.60;;;;;;;;;;757822;184;1123752;-67
2022/04/22 09:34:11;;;;;;;71.83;39.17;;;;;;;;;;768682;184;624363;-65
2022/04/22 09:44:14;;;;;;;83.90;47.20;;;;;;;;;;744725;187;918755;-67
2022/04/22 09:46:40;;;;;;;79.43;49.30;;;;;;;;;;750205;184;918246;-67
2022/04/22 09:49:06;;;;;;;79.23;46.80;;;;;;;;;;749088;185;919408;-66
2022/04/22 09:51:31;;;;;;;83.43;51.57;;;;;;;;;;749225;184;918706;-66
2022/04/22 09:54:02;;;;;;;71.12;38.90;;;;;;;;;;735419;188;917085;-66
2022/04/22 09:56:28;;;;;;;96.00;52.33;;;;;;;;;;757663;183;926963;-67
2022/04/22 09:58:54;;;;;;;70.57;48.35;;;;;;;;;;752848;183;919353;-66
2022/04/22 10:01:20;;;;;;;79.80;47.93;;;;;;;;;;759996;184;919331;-66
2022/04/22 10:03:46;;;;;;;90.07;53.60;;;;;;;;;;754886;184;919315;-66
2022/04/22 10:06:11;;;;;;;77.00;45.50;;;;;;;;;;755980;184;919734;-67
2022/04/22 10:08:37;;;;;;;81.47;46.57;;;;;;;;;;760197;184;919175;-67
2022/04/22 10:11:04;;;;;;;74.30;45.50;;;;;;;;;;755296;183;919225;-67
2022/04/22 10:13:33;;;;;;;77.23;47.97;;;;;;;;;;755703;183;919018;-67
2022/04/22 10:15:56;;;;;;;78.67;46.37;;;;;;;;;;753655;184;918594;-68
2022/04/22 10:18:22;;;;;;;69.60;43.47;;;;;;;;;;762506;184;919423;-66
2022/04/22 10:20:48;;;;;;;80.73;47.00;;;;;;;;;;752421;184;920472;-66
2022/04/22 10:23:14;;;;;;;73.60;46.10;;;;;;;;;;756392;183;918969;-66
2022/04/22 10:25:40;;;;;;;69.90;45.10;;;;;;;;;;760870;184;1019831;-67
2022/04/22 10:28:06;;;;;;;79.67;45.37;;;;;;;;;;760115;183;973450;-67
2022/04/22 10:30:32;;;;;;;69.17;41.67;;;;;;;;;;758252;184;918748;-66
2022/04/22 10:32:57;;;;;;;73.67;39.57;;;;;;;;;;764667;183;920206;-67
2022/04/22 10:35:23;;;;;;;68.93;45.87;;;;;;;;;;751247;183;919428;-67
2022/04/22 10:37:49;;;;;;;63.80;42.30;;;;;;;;;;758885;182;919711;-66
2022/04/22 10:40:18;;;;;;;65.23;39.93;;;;;;;;;;755890;183;1021927;-67
2022/04/22 10:42:44;;;;;;;67.73;40.03;;;;;;;;;;761790;184;919476;-67
2022/04/22 10:47:44;;;;;;;65.50;44.37;;;;;;;;;;758609;182;918467;-67
2022/04/22 10:50:15;;;;;;;66.13;38.30;;;;;;;;;;754641;184;919205;-66
2022/04/22 10:52:41;;;;;;;75.13;40.40;;;;;;;;;;762625;183;939670;-66
2022/04/22 10:55:07;;;;;;;68.03;40.93;;;;;;;;;;755538;184;918886;-66
2022/04/22 10:57:34;;;;;;;72.03;36.33;;;;;;;;;;758018;183;919213;-66
2022/04/22 11:00:04;;;;;;;71.00;42.47;;;;;;;;;;760558;183;918827;-67
2022/04/22 11:02:31;;;;;;;62.57;42.77;;;;;;;;;;760176;184;919081;-67
2022/04/22 11:05:02;;;;;;;62.13;38.27;;;;;;;;;;754273;184;918659;-66
2022/04/22 11:07:29;;;;;;;66.97;36.70;;;;;;;;;;756138;184;919130;-67
2022/04/22 11:09:56;;;;;;;58.50;35.97;;;;;;;;;;762051;184;918287;-66
2022/04/22 11:12:37;;;;;;;59.17;36.13;;;;;;;;;;753394;183;919009;-67
2022/04/22 11:15:02;;;;;;;73.72;40.80;;;;;;;;;;750832;183;918535;-66
2022/04/22 11:17:30;;;;;;;56.13;38.60;;;;;;;;;;763037;183;918852;-67
2022/04/22 11:19:57;;;;;;;61.73;37.50;;;;;;;;;;747822;185;924389;-67
2022/04/22 11:22:23;;;;;;;67.40;40.60;;;;;;;;;;754274;184;1048003;-66
2022/04/22 11:24:48;;;;;;;60.03;39.70;;;;;;;;;;746669;185;918840;-67
2022/04/22 11:27:14;;;;;;;55.07;35.93;;;;;;;;;;749286;185;918926;-66
2022/04/22 11:29:40;;;;;;;58.17;36.77;;;;;;;;;;754252;185;918613;-67
2022/04/22 11:32:07;;;;;;;52.73;36.50;;;;;;;;;;756778;183;918643;-67
2022/04/22 11:34:33;;;;;;;52.00;35.37;;;;;;;;;;758543;184;919315;-67
2022/04/22 11:37:01;;;;;;;55.95;36.53;;;;;;;;;;759294;184;939641;-67
2022/04/22 11:39:26;;;;;;;60.50;37.13;;;;;;;;;;753875;184;920610;-69
2022/04/22 11:41:53;;;;;;;53.87;36.40;;;;;;;;;;759480;183;917932;-68
2022/04/22 11:44:19;;;;;;;54.10;36.70;;;;;;;;;;755956;184;919044;-66
2022/04/22 11:46:46;;;;;;;61.03;40.03;;;;;;;;;;760859;182;910325;-67
2022/04/22 11:49:11;;;;;;;58.27;38.97;;;;;;;;;;755618;183;918544;-66
2022/04/22 11:51:37;;;;;;;51.70;30.40;;;;;;;;;;755821;184;917799;-67
2022/04/22 11:54:03;;;;;;;49.53;32.00;;;;;;;;;;757090;182;918995;-67
2022/04/22 11:56:29;;;;;;;56.80;35.27;;;;;;;;;;748296;183;919111;-66
2022/04/22 11:58:54;;;;;;;49.43;34.90;;;;;;;;;;748836;184;936009;-67
2022/04/22 12:06:24;;;;;;;47.20;31.10;;;;;;;;;;757975;183;920988;-66
2022/04/22 12:08:51;;;;;;;48.37;32.40;;;;;;;;;;759595;183;1022052;-67
2022/04/22 12:11:17;;;;;;;50.73;31.97;;;;;;;;;;753035;184;920581;-66
2022/04/22 12:13:43;;;;;;;44.17;31.07;;;;;;;;;;762138;184;917211;-66
2022/04/22 12:16:09;;;;;;;48.57;31.70;;;;;;;;;;754192;184;920151;-67
2022/04/22 12:18:35;;;;;;;49.33;29.35;;;;;;;;;;760168;184;917465;-67
2022/04/22 12:21:01;;;;;;;44.00;30.90;;;;;;;;;;763417;184;647719;-67
2022/04/22 12:23:38;;;;;;;41.30;27.20;;;;;;;;;;758362;184;636656;-67
2022/04/22 12:26:05;;;;;;;47.10;26.87;;;;;;;;;;758559;184;917338;-67
2022/04/22 12:28:30;;;;;;;35.80;25.57;;;;;;;;;;754007;183;918990;-67
2022/04/22 12:30:57;;;;;;;56.40;26.13;;;;;;;;;;764379;183;921124;-66
2022/04/22 12:33:23;;;;;;;37.30;25.10;;;;;;;;;;753738;183;919121;-66
2022/04/22 12:35:50;;;;;;;37.07;24.07;;;;;;;;;;752982;184;918082;-67
2022/04/22 12:38:17;;;;;;;36.40;25.70;;;;;;;;;;761009;184;937206;-68
2022/04/22 12:40:45;;;;;;;39.37;25.50;;;;;;;;;;762437;184;911960;-67
2022/04/22 12:43:15;;;;;;;35.07;23.97;;;;;;;;;;755801;183;912841;-67
2022/04/22 12:53:25;;;;;;;41.57;24.17;;;;;;;;;;747422;184;916491;-67
2022/04/22 12:55:56;;;;;;;35.03;22.50;;;;;;;;;;748544;184;915971;-67
2022/04/22 12:58:22;;;;;;;38.43;25.43;;;;;;;;;;750786;183;913643;-67
2022/04/22 13:00:48;;;;;;;37.47;23.93;;;;;;;;;;756463;184;915543;-66
2022/04/22 13:03:14;;;;;;;29.90;22.87;;;;;;;;;;750430;184;914724;-66
2022/04/22 13:05:40;;;;;;;32.73;23.40;;;;;;;;;;759758;182;931883;-67
2022/04/22 13:08:09;;;;;;;35.57;23.87;;;;;;;;;;749677;184;915868;-66
2022/04/22 13:10:34;;;;;;;36.30;24.73;;;;;;;;;;755241;184;918064;-67
2022/04/22 13:13:00;;;;;;;31.40;22.10;;;;;;;;;;756835;183;920102;-67
2022/04/22 13:15:26;;;;;;;31.43;20.00;;;;;;;;;;750221;184;922047;-66
2022/04/22 13:17:53;;;;;;;33.87;20.13;;;;;;;;;;766543;183;908862;-67
2022/04/22 13:20:18;;;;;;;29.80;21.00;;;;;;;;;;762824;184;915248;-66
2022/04/22 13:22:44;;;;;;;37.23;21.87;;;;;;;;;;752164;184;928411;-66
2022/04/22 13:25:10;;;;;;;30.73;21.17;;;;;;;;;;749217;184;1021345;-66
2022/04/22 13:27:36;;;;;;;36.67;22.50;;;;;;;;;;749836;187;907243;-66
2022/04/22 13:30:03;;;;;;;32.50;21.37;;;;;;;;;;751338;184;908567;-66
2022/04/22 13:32:28;;;;;;;33.30;22.00;;;;;;;;;;746656;184;909139;-68
2022/04/22 13:34:53;;;;;;;37.17;24.40;;;;;;;;;;760123;183;919576;-66
2022/04/22 13:37:19;;;;;;;31.93;21.13;;;;;;;;;;754100;184;911810;-66
2022/04/22 13:39:45;;;;;;;26.30;18.30;;;;;;;;;;756638;184;918921;-66
2022/04/22 13:42:11;;;;;;;33.53;19.67;;;;;;;;;;763268;184;879491;-66
2022/04/22 13:54:44;;;;;;;24.30;17.17;;;;;;;;;;756802;184;918302;-66
2022/04/22 13:57:09;;;;;;;26.80;16.00;;;;;;;;;;745828;187;919816;-66
2022/04/22 13:59:35;;;;;;;49.20;36.23;;;;;;;;;;750697;184;918619;-67
2022/04/22 14:02:02;;;;;;;37.67;27.03;;;;;;;;;;760912;183;628685;-66
2022/04/22 14:04:27;;;;;;;67.23;42.93;;;;;;;;;;756835;184;816384;-67
2022/04/22 14:06:53;;;;;;;30.90;22.30;;;;;;;;;;757470;184;619102;-66
2022/04/22 14:09:19;;;;;;;34.90;22.97;;;;;;;;;;764593;183;916622;-66
2022/04/22 14:11:46;;;;;;;32.10;20.70;;;;;;;;;;761460;182;916920;-68
2022/04/22 14:14:11;;;;;;;24.50;16.70;;;;;;;;;;758059;182;1014232;-67
2022/04/22 14:16:36;;;;;;;24.33;16.50;;;;;;;;;;756155;183;922199;-66
2022/04/22 14:19:02;;;;;;;28.93;17.00;;;;;;;;;;761527;184;916596;-67
2022/04/22 14:21:32;;;;;;;22.27;15.17;;;;;;;;;;756642;184;919844;-67
2022/04/22 14:23:54;;;;;;;22.20;14.57;;;;;;;;;;755712;183;924177;-67
2022/04/22 14:26:20;;;;;;;17.10;12.07;;;;;;;;;;764256;184;918614;-66
2022/04/22 14:28:46;;;;;;;24.73;16.47;;;;;;;;;;758337;184;920106;-67
2022/04/22 14:31:12;;;;;;;35.63;20.17;;;;;;;;;;756605;184;927181;-68
2022/04/22 14:33:38;;;;;;;43.00;22.43;;;;;;;;;;763875;184;919007;-66
2022/04/22 14:36:03;;;;;;;26.33;18.73;;;;;;;;;;752691;184;918642;-66
2022/04/22 14:38:29;;;;;;;41.03;36.63;;;;;;;;;;757089;183;1019894;-66
2022/04/22 14:40:55;;;;;;;29.43;20.27;;;;;;;;;;760942;183;917016;-67
2022/04/22 14:43:21;;;;;;;30.23;20.17;;;;;;;;;;760409;183;920276;-66
2022/04/22 14:45:47;;;;;;;29.33;21.77;;;;;;;;;;748663;183;919241;-68
2022/04/22 14:48:13;;;;;;;27.50;19.42;;;;;;;;;;753596;184;918704;-66
2022/04/22 14:50:40;;;;;;;36.57;27.00;;;;;;;;;;765356;183;905346;-67
2022/04/22 14:53:04;;;;;;;29.00;21.45;;;;;;;;;;759711;183;924200;-66
2022/04/22 14:55:30;;;;;;;28.37;21.70;;;;;;;;;;753851;184;1021841;-67
2022/04/22 14:57:56;;;;;;;25.20;18.23;;;;;;;;;;763465;183;927240;-66
2022/04/22 15:00:22;;;;;;;31.07;21.97;;;;;;;;;;759517;183;919418;-66
2022/04/22 15:02:48;;;;;;;34.00;24.17;;;;;;;;;;756639;183;919024;-66
2022/04/22 15:05:14;;;;;;;31.33;20.70;;;;;;;;;;759034;184;919033;-67
2022/04/22 15:07:39;;;;;;;25.10;19.27;;;;;;;;;;761589;183;918838;-67
2022/04/22 15:10:06;;;;;;;27.97;20.40;;;;;;;;;;761196;182;918724;-67
2022/04/22 15:12:31;;;;;;;30.80;20.00;;;;;;;;;;753766;184;918851;-67